Bigfork, MN

7:26 PM CST on November 28, 2014 (GMT -0600)
Grand Rapids-Itasca County-Newstrom Field | Change Station
CLOSE
Current Station
Airport
Location: Grand Rapids,
Elevation: 1355 ft
Nearby Weather Stations

Elev 1355 ft 47.21 °N, 93.51 °W | Updated 11 minutes ago

Overcast
Overcast
14 °F
Feels Like 1 °F
N
10
Wind Variable Wind from SE

Today
High -- | Low -- °F
--% Chance of Precip.
Yesterday
High -- | Low -- °F
Precip. -- in
7:38 AM 4:26 PM
Waxing Crescent, 46% visible
Pressure 29.75 in
Visibility 10.0 miles
Clouds Mostly Cloudy 3300 ft
Overcast 4600 ft
Windchill 1 °F
Dew Point 9 °F
Humidity 79%
Rainfall 0.00 in
Snow Depth Not available.
UV 0 out of 12
Pollen .10 out of 12
Air Quality Not available.
Flu Activity Not available.
METAR KGPZ 290115Z AUTO 13009KT 10SM BKN033 OVC046 M10/M13 A2975 RMK AO1

More Conditions Fewer Conditions

Pressure 29.75 in
Visibility 10.0 miles
Clouds Mostly Cloudy 3300 ft
Overcast 4600 ft
Windchill 1 °F
Dew Point 9 °F
Humidity 79%
Rainfall 0.00 in
Snow Depth Not available.
UV 0 out of 12
Pollen .10 out of 12
Air Quality Not available.
Flu Activity Not available.
METAR KGPZ 290115Z AUTO 13009KT 10SM BKN033 OVC046 M10/M13 A2975 RMK AO1

More Conditions Fewer Conditions

10-Day Weather Forecast

Almanac

Astronomy

Nov. 28, 2014 Rise Set
Actual Time
Civil Twilight
Nautical Twilight
Astronomical Twilight
Moon
Length of Visible Light
Length of Day
Tomorrow will be .
, % of the Moon is Illuminated

Today's Extremes

State Highs State Lows

Community

WunderPhotos

Upload Photos

1,774,368 photos uploaded!

WunderBlogs® & News

Nearby

Air Quality

  Air Quality AQ Index Pollutant
Not available.

Snow Depth

Station Depth Elevation

Earthquake Activity

City Distance Mag. Time & Date
Minimum magnitude displayed is 2.5.

Coastal Water Temperatures

Place Temperature

Nearby Weather Stations